createdAt,value
2019-02-19T00:01:26.930Z,53.80
2019-02-19T00:03:55.442Z,55.03
2019-02-19T00:06:23.933Z,54.13
2019-02-19T00:08:52.453Z,52.77
2019-02-19T00:11:20.940Z,50.50
2019-02-19T00:13:49.456Z,53.73
2019-02-19T00:16:17.957Z,57.37
2019-02-19T00:18:46.466Z,53.70
2019-02-19T00:21:14.950Z,56.60
2019-02-19T00:23:43.462Z,57.90
2019-02-19T00:26:16.985Z,59.27
2019-02-19T00:28:45.496Z,59.53
2019-02-19T00:31:13.986Z,59.90
2019-02-19T00:33:42.488Z,59.10
2019-02-19T00:36:11.015Z,56.20
2019-02-19T00:38:39.497Z,58.53
2019-02-19T00:41:07.976Z,58.73
2019-02-19T00:43:36.496Z,62.13
2019-02-19T00:46:04.984Z,61.73
2019-02-19T00:48:33.504Z,55.87
2019-02-19T00:51:01.983Z,62.30
2019-02-19T00:53:30.497Z,60.13
2019-02-19T00:55:58.988Z,63.43
2019-02-19T00:58:27.496Z,63.93
2019-02-19T01:00:55.989Z,59.03
2019-02-19T01:03:24.499Z,58.73
2019-02-19T01:05:53.134Z,67.20
2019-02-19T01:08:21.724Z,65.10
2019-02-19T01:10:50.214Z,64.73
2019-02-19T01:13:18.721Z,65.40
2019-02-19T01:15:47.210Z,64.00
2019-02-19T01:18:15.724Z,64.27
2019-02-19T01:20:44.213Z,65.53
2019-02-19T01:23:12.728Z,69.13
2019-02-19T01:25:41.221Z,62.83
2019-02-19T01:28:09.740Z,70.37
2019-02-19T01:30:38.243Z,77.30
2019-02-19T01:33:06.765Z,68.33
2019-02-19T01:35:35.261Z,75.07
2019-02-19T01:38:03.781Z,69.00
2019-02-19T01:40:32.269Z,71.00
2019-02-19T01:43:00.783Z,75.47
2019-02-19T01:45:34.090Z,75.97
2019-02-19T01:47:59.511Z,75.00
2019-02-19T01:50:28.001Z,75.50
2019-02-19T01:52:56.517Z,72.73
2019-02-19T01:55:25.010Z,74.40
2019-02-19T01:57:53.503Z,72.60
2019-02-19T02:00:22.017Z,74.77
2019-02-19T02:02:50.512Z,72.20
2019-02-19T02:05:19.032Z,77.10
2019-02-19T02:07:47.518Z,72.17
2019-02-19T02:10:16.096Z,74.07
2019-02-19T02:12:44.596Z,75.63
2019-02-19T02:15:13.109Z,70.73
2019-02-19T02:17:41.597Z,72.63
2019-02-19T02:20:10.347Z,77.90
2019-02-19T02:22:38.841Z,73.67
2019-02-19T02:25:07.422Z,73.00
2019-02-19T02:27:35.907Z,69.70
2019-02-19T02:30:05.958Z,76.90
2019-02-19T02:32:34.457Z,67.87
2019-02-19T02:35:02.966Z,71.67
2019-02-19T02:37:31.465Z,73.87
2019-02-19T02:39:59.973Z,75.50
2019-02-19T02:42:28.470Z,77.47
2019-02-19T02:44:56.986Z,71.50
2019-02-19T02:47:25.477Z,75.57
2019-02-19T02:49:53.996Z,82.37
2019-02-19T02:52:22.476Z,71.07
2019-02-19T02:54:50.992Z,76.60
2019-02-19T02:57:19.478Z,75.70
2019-02-19T02:59:48.000Z,70.37
2019-02-19T03:02:16.487Z,74.83
2019-02-19T03:04:45.005Z,82.70
2019-02-19T03:07:21.163Z,78.10
2019-02-19T03:09:49.694Z,78.57
2019-02-19T03:12:18.240Z,79.77
2019-02-19T03:14:46.780Z,79.27
2019-02-19T03:17:15.268Z,77.30
2019-02-19T03:19:43.784Z,79.10
2019-02-19T03:22:12.280Z,79.23
2019-02-19T03:24:40.808Z,76.43
2019-02-19T03:27:09.288Z,80.90
2019-02-19T03:29:37.805Z,84.87
2019-02-19T03:32:06.296Z,78.63
2019-02-19T03:34:34.812Z,81.27
2019-02-19T03:37:03.314Z,75.53
2019-02-19T03:39:31.825Z,76.10
2019-02-19T03:42:00.321Z,83.57
2019-02-19T03:44:28.828Z,87.03
2019-02-19T03:46:57.312Z,84.57
2019-02-19T03:49:25.826Z,83.23
2019-02-19T03:51:54.318Z,86.43
2019-02-19T03:54:22.839Z,88.20
2019-02-19T03:56:51.406Z,89.67
2019-02-19T03:59:19.925Z,81.83
2019-02-19T04:01:48.419Z,86.53
2019-02-19T04:04:16.945Z,85.40
2019-02-19T04:06:45.438Z,84.50
2019-02-19T04:09:13.966Z,92.93
2019-02-19T04:11:42.465Z,83.20
2019-02-19T04:14:10.972Z,86.47
2019-02-19T04:16:39.459Z,91.50
2019-02-19T04:19:07.970Z,95.30
2019-02-19T04:21:36.459Z,83.33
2019-02-19T04:24:04.957Z,92.23
2019-02-19T04:26:33.467Z,96.27
2019-02-19T04:29:01.957Z,87.83
2019-02-19T04:31:31.847Z,85.50
2019-02-19T04:34:00.335Z,86.70
2019-02-19T04:36:28.853Z,92.40
2019-02-19T04:38:57.435Z,92.57
2019-02-19T04:41:25.979Z,89.90
2019-02-19T04:43:54.463Z,95.97
2019-02-19T04:46:31.266Z,86.50
2019-02-19T04:48:53.187Z,96.30
2019-02-19T04:51:21.704Z,89.00
2019-02-19T04:53:50.204Z,88.87
2019-02-19T04:56:18.722Z,93.73
2019-02-19T04:58:47.205Z,94.60
2019-02-19T05:01:15.724Z,98.53
2019-02-19T05:03:44.216Z,93.27
2019-02-19T05:06:12.730Z,91.50
2019-02-19T05:08:41.232Z,90.47
2019-02-19T05:11:09.744Z,89.80
2019-02-19T05:13:38.238Z,92.37
2019-02-19T05:16:06.742Z,97.47
2019-02-19T05:18:35.230Z,97.17
2019-02-19T05:21:03.749Z,100.00
2019-02-19T05:23:32.243Z,97.40
2019-02-19T05:26:00.755Z,92.47
2019-02-19T05:28:29.248Z,93.63
2019-02-19T05:30:57.766Z,93.73
2019-02-19T05:33:26.245Z,92.17
2019-02-19T05:35:54.762Z,88.20
2019-02-19T05:38:23.251Z,99.90
2019-02-19T05:40:51.772Z,92.53
2019-02-19T05:43:20.263Z,95.93
2019-02-19T05:45:48.795Z,101.90
2019-02-19T05:48:17.302Z,101.47
2019-02-19T05:50:45.834Z,93.17
2019-02-19T05:53:14.326Z,98.20
2019-02-19T05:55:42.847Z,99.00
2019-02-19T05:58:11.350Z,94.80
2019-02-19T06:00:39.839Z,98.13
2019-02-19T06:03:08.401Z,98.27
2019-02-19T06:05:36.868Z,100.03
2019-02-19T06:08:05.383Z,92.23
2019-02-19T06:10:33.872Z,94.70
2019-02-19T06:13:02.387Z,97.90
2019-02-19T06:15:30.879Z,100.10
2019-02-19T06:17:59.402Z,97.63
2019-02-19T06:20:27.901Z,93.70
2019-02-19T06:22:56.414Z,94.10
2019-02-19T06:25:24.921Z,93.20
2019-02-19T06:27:53.435Z,99.57
2019-02-19T06:30:21.925Z,101.90
2019-02-19T06:32:50.452Z,95.83
2019-02-19T06:35:18.930Z,96.67
2019-02-19T06:37:49.649Z,95.03
2019-02-19T06:40:28.558Z,93.30
2019-02-19T06:42:57.209Z,97.30
2019-02-19T06:45:25.698Z,99.60
2019-02-19T06:47:54.215Z,98.27
2019-02-19T06:50:22.704Z,98.17
2019-02-19T06:52:51.233Z,101.73
2019-02-19T06:55:19.976Z,105.63
2019-02-19T06:57:48.496Z,100.70
2019-02-19T07:00:16.989Z,96.70
2019-02-19T07:02:55.818Z,94.63
2019-02-19T07:05:25.391Z,94.50
2019-02-19T07:07:53.916Z,95.13
2019-02-19T07:10:22.410Z,97.50
2019-02-19T07:12:50.921Z,97.47
2019-02-19T07:15:19.409Z,97.77
2019-02-19T07:17:47.930Z,99.13
2019-02-19T07:20:16.427Z,98.73
2019-02-19T07:22:44.939Z,94.77
2019-02-19T07:25:13.491Z,91.60
2019-02-19T07:27:41.999Z,90.50
2019-02-19T07:30:12.036Z,94.37
2019-02-19T07:32:40.547Z,91.43
2019-02-19T07:35:10.472Z,95.17
2019-02-19T07:37:38.989Z,92.43
2019-02-19T07:40:08.910Z,90.90
2019-02-19T07:42:37.421Z,90.83
2019-02-19T07:45:11.342Z,84.87
2019-02-19T07:47:39.890Z,85.60
2019-02-19T07:50:10.221Z,83.93
2019-02-19T07:52:41.136Z,90.73
2019-02-19T07:55:11.801Z,86.70
2019-02-19T07:57:40.297Z,89.00
2019-02-19T08:00:13.657Z,86.43
2019-02-19T08:02:42.152Z,86.07
2019-02-19T08:05:10.736Z,88.73
2019-02-19T08:07:40.918Z,84.60
2019-02-19T08:10:12.916Z,91.33
2019-02-19T08:12:42.602Z,92.00
2019-02-19T08:15:12.663Z,85.60
2019-02-19T08:17:41.114Z,86.90
2019-02-19T08:20:15.971Z,89.00
2019-02-19T08:22:40.541Z,84.13
2019-02-19T08:25:09.056Z,85.57
2019-02-19T08:27:37.561Z,81.10
2019-02-19T08:30:08.734Z,85.67
2019-02-19T08:32:37.231Z,91.53
2019-02-19T08:35:06.887Z,85.30
2019-02-19T08:37:35.390Z,78.40
2019-02-19T08:40:04.067Z,82.83
2019-02-19T08:42:32.553Z,77.30
2019-02-19T08:45:01.078Z,82.30
2019-02-19T08:47:29.570Z,82.53
2019-02-19T08:49:58.167Z,80.80
2019-02-19T08:52:26.651Z,81.60
2019-02-19T08:54:55.162Z,78.13
2019-02-19T08:57:23.654Z,75.77
2019-02-19T08:59:52.169Z,78.53
2019-02-19T09:02:20.659Z,75.07
2019-02-19T09:04:49.173Z,70.33
2019-02-19T09:07:17.663Z,77.97
2019-02-19T09:09:46.182Z,75.63
2019-02-19T09:12:14.670Z,81.73
2019-02-19T09:14:43.189Z,78.27
2019-02-19T09:17:11.687Z,77.57
2019-02-19T09:19:40.207Z,78.97
2019-02-19T09:22:08.704Z,74.40
2019-02-19T09:24:37.221Z,79.03
2019-02-19T09:27:05.707Z,79.27
2019-02-19T09:29:34.229Z,74.63
2019-02-19T09:32:02.721Z,81.87
2019-02-19T09:34:31.237Z,76.97
2019-02-19T09:36:59.727Z,76.53
2019-02-19T09:39:28.255Z,75.70
2019-02-19T09:41:56.725Z,77.87
2019-02-19T09:44:25.275Z,79.67
2019-02-19T09:46:53.805Z,74.10
2019-02-19T09:49:22.289Z,75.27
2019-02-19T09:51:50.801Z,72.17
2019-02-19T09:54:19.295Z,77.50
2019-02-19T09:56:47.820Z,72.40
2019-02-19T09:59:16.316Z,72.97
2019-02-19T10:01:44.991Z,72.57
2019-02-19T10:04:13.490Z,69.70
2019-02-19T10:06:42.010Z,68.03
2019-02-19T10:09:10.491Z,71.30
2019-02-19T10:11:39.012Z,68.97
2019-02-19T10:14:07.499Z,65.47
2019-02-19T10:16:41.649Z,62.83
2019-02-19T10:19:06.231Z,68.03
2019-02-19T10:21:34.742Z,64.60
2019-02-19T10:24:03.232Z,64.13
2019-02-19T10:26:31.755Z,61.27
2019-02-19T10:29:00.254Z,55.93
2019-02-19T10:31:28.766Z,66.10
2019-02-19T10:33:57.266Z,60.03
2019-02-19T10:36:25.797Z,47.80
2019-02-19T10:38:54.283Z,47.67
2019-02-19T10:41:22.798Z,39.43
2019-02-19T10:43:51.299Z,39.30
2019-02-19T10:46:19.815Z,38.30
2019-02-19T10:48:48.310Z,36.80
2019-02-19T10:51:16.827Z,35.77
2019-02-19T10:53:45.429Z,35.33
2019-02-19T10:56:13.939Z,34.33
2019-02-19T10:58:42.443Z,34.03
2019-02-19T11:01:10.957Z,32.70
2019-02-19T11:03:39.572Z,34.57
2019-02-19T11:06:13.730Z,37.53
2019-02-19T11:08:42.388Z,38.20
2019-02-19T11:11:12.457Z,37.17
2019-02-19T11:13:42.470Z,36.53
2019-02-19T11:16:11.070Z,44.47
2019-02-19T11:18:40.014Z,39.07
2019-02-19T11:21:08.602Z,35.47
2019-02-19T11:23:37.095Z,34.03
2019-02-19T11:26:05.615Z,32.37
2019-02-19T11:28:34.116Z,30.10
2019-02-19T11:31:02.631Z,28.77
2019-02-19T11:33:31.138Z,31.80
2019-02-19T11:35:59.653Z,35.60
2019-02-19T11:38:28.154Z,31.23
2019-02-19T11:40:56.683Z,29.30
2019-02-19T11:43:25.170Z,27.33
2019-02-19T11:45:53.688Z,32.77
2019-02-19T11:48:22.187Z,29.13
2019-02-19T11:50:50.714Z,32.80
2019-02-19T11:53:19.213Z,35.53
2019-02-19T11:55:47.731Z,28.97
2019-02-19T11:58:16.303Z,33.27
2019-02-19T12:00:45.496Z,31.10
2019-02-19T12:03:13.996Z,31.33
2019-02-19T12:05:42.517Z,33.23
2019-02-19T12:08:11.019Z,33.27
2019-02-19T12:10:39.543Z,33.30
2019-02-19T12:13:08.040Z,31.70
2019-02-19T12:15:36.533Z,32.30
2019-02-19T12:18:05.130Z,30.33
2019-02-19T12:20:33.623Z,35.13
2019-02-19T12:23:02.150Z,29.97
2019-02-19T12:25:30.639Z,30.67
2019-02-19T12:27:59.165Z,32.33
2019-02-19T12:30:27.668Z,34.57
2019-02-19T12:32:56.197Z,33.07
2019-02-19T12:35:24.695Z,30.47
2019-02-19T12:37:53.210Z,31.27
2019-02-19T12:40:21.711Z,29.43
2019-02-19T12:42:50.235Z,31.73
2019-02-19T12:45:18.736Z,31.20
2019-02-19T12:47:47.290Z,26.83
2019-02-19T12:50:19.157Z,19.00
2019-02-19T12:52:47.675Z,13.47
2019-02-19T12:55:16.236Z,12.17
2019-02-19T12:57:44.755Z,11.37
2019-02-19T13:00:15.876Z,11.70
2019-02-19T13:02:44.464Z,12.30
2019-02-19T13:05:14.322Z,15.80
2019-02-19T13:07:42.950Z,13.23
2019-02-19T13:10:12.191Z,13.87
2019-02-19T13:12:40.838Z,11.70
2019-02-19T13:15:17.140Z,14.13
2019-02-19T13:17:45.646Z,15.20
2019-02-19T13:20:14.980Z,12.73
2019-02-19T13:22:43.497Z,15.50
2019-02-19T13:25:12.433Z,12.57
2019-02-19T13:27:41.014Z,12.00
2019-02-19T13:30:23.172Z,13.80
2019-02-19T13:32:51.702Z,15.70
2019-02-19T13:35:20.261Z,12.50
2019-02-19T13:37:48.773Z,15.83
2019-02-19T13:40:18.600Z,14.63
2019-02-19T13:42:47.118Z,16.10
2019-02-19T13:45:15.991Z,16.53
2019-02-19T13:47:44.864Z,14.77
2019-02-19T13:50:19.212Z,17.77
2019-02-19T13:52:52.130Z,20.70
2019-02-19T13:55:22.350Z,24.67
2019-02-19T13:57:51.592Z,19.80
2019-02-19T14:00:23.740Z,18.87
2019-02-19T14:02:52.268Z,20.43
2019-02-19T14:05:21.034Z,17.97
2019-02-19T14:07:49.707Z,17.20
2019-02-19T14:10:18.361Z,16.60
2019-02-19T14:12:46.911Z,18.77
2019-02-19T14:15:17.060Z,18.33
2019-02-19T14:17:45.589Z,15.00
2019-02-19T14:20:15.723Z,18.43
2019-02-19T14:22:48.743Z,19.27
2019-02-19T14:25:21.561Z,18.13
2019-02-19T14:27:54.388Z,17.13
2019-02-19T14:30:26.066Z,18.70
2019-02-19T14:32:56.230Z,21.50
2019-02-19T14:35:41.430Z,20.70
2019-02-19T14:38:27.497Z,18.83
2019-02-19T14:41:15.748Z,18.50
2019-02-19T14:43:48.416Z,22.30
2019-02-19T14:46:24.249Z,17.10
2019-02-19T14:48:54.410Z,15.17
2019-02-19T14:51:24.542Z,19.43
2019-02-19T14:53:54.690Z,15.93
2019-02-19T14:56:27.522Z,19.93
2019-02-19T14:58:57.677Z,18.13
2019-02-19T15:01:42.612Z,18.17
2019-02-19T15:04:24.409Z,16.00
2019-02-19T15:07:09.290Z,16.47
2019-02-19T15:09:45.177Z,15.80
2019-02-19T15:12:15.329Z,20.10
2019-02-19T15:14:48.111Z,20.93
2019-02-19T15:17:18.274Z,20.17
2019-02-19T15:19:57.291Z,20.23
2019-02-19T15:22:35.925Z,16.57
2019-02-19T15:25:09.701Z,18.43
2019-02-19T15:27:39.857Z,16.77
2019-02-19T15:30:11.369Z,15.47
2019-02-19T15:32:44.484Z,18.07
2019-02-19T15:35:21.842Z,15.97
2019-02-19T15:37:54.713Z,19.97
2019-02-19T15:40:33.595Z,19.10
2019-02-19T15:43:06.438Z,16.77
2019-02-19T15:45:52.189Z,16.03
2019-02-19T15:48:25.006Z,17.10
2019-02-19T15:50:57.839Z,15.63
2019-02-19T15:53:43.843Z,16.10
2019-02-19T15:56:28.469Z,16.50
2019-02-19T15:59:04.389Z,15.20
2019-02-19T16:01:34.592Z,13.53
2019-02-19T16:04:05.047Z,16.43
2019-02-19T16:06:37.852Z,16.13
2019-02-19T16:09:13.983Z,12.57
2019-02-19T16:11:44.992Z,12.30
2019-02-19T16:14:20.588Z,13.50
2019-02-19T16:16:50.706Z,12.20
2019-02-19T16:19:26.278Z,11.67
2019-02-19T16:22:14.208Z,10.33
2019-02-19T16:24:56.119Z,9.37
2019-02-19T16:27:38.370Z,8.93
2019-02-19T16:30:14.504Z,10.17
2019-02-19T16:32:59.432Z,11.43
2019-02-19T16:35:32.019Z,11.70
2019-02-19T16:38:20.254Z,9.57
2019-02-19T16:40:56.139Z,11.83
2019-02-19T16:43:26.283Z,12.27
2019-02-19T16:45:56.404Z,11.87
2019-02-19T16:48:26.552Z,8.93
2019-02-19T16:50:56.671Z,7.27
2019-02-19T16:53:29.786Z,8.60
2019-02-19T16:56:05.566Z,9.43
2019-02-19T17:08:49.310Z,16.67
2019-02-19T17:11:21.917Z,9.70
2019-02-19T17:13:58.039Z,11.73
2019-02-19T17:16:23.921Z,9.80
2019-02-19T17:18:54.071Z,14.58
2019-02-19T17:21:27.116Z,10.15
2019-02-19T17:24:05.876Z,8.88
2019-02-19T17:26:47.994Z,6.47
2019-02-19T17:29:20.910Z,10.08
2019-02-19T17:32:06.111Z,7.42
2019-02-19T17:40:48.878Z,9.13
2019-02-19T17:43:19.028Z,9.95
2019-02-19T17:49:24.149Z,10.53
2019-02-19T17:52:00.086Z,8.70
2019-02-19T17:54:30.242Z,7.28
2019-02-19T17:57:12.404Z,5.08
2019-02-19T17:59:45.557Z,6.65
2019-02-19T18:02:15.685Z,11.97
2019-02-19T18:04:45.836Z,9.25
2019-02-19T18:07:31.289Z,8.25
2019-02-19T18:10:04.005Z,6.53
2019-02-19T18:12:36.801Z,10.10
2019-02-19T18:15:17.566Z,7.08
2019-02-19T18:17:56.706Z,7.00
2019-02-19T18:20:25.212Z,17.25
2019-02-19T18:22:53.709Z,7.72
2019-02-19T18:25:22.307Z,23.02
2019-02-19T18:27:50.782Z,10.65
2019-02-19T18:30:19.302Z,16.27
2019-02-19T18:32:47.783Z,16.42
2019-02-19T18:35:16.301Z,16.65
2019-02-19T18:37:44.790Z,18.62
2019-02-19T18:40:13.299Z,19.20
2019-02-19T18:42:41.787Z,29.00
2019-02-19T18:45:10.650Z,19.02
2019-02-19T18:47:39.200Z,11.57
2019-02-19T18:50:09.563Z,13.80
2019-02-19T18:52:38.056Z,19.27
2019-02-19T18:55:07.902Z,17.48
2019-02-19T18:57:36.389Z,13.20
2019-02-19T19:00:07.279Z,12.88
2019-02-19T19:02:35.770Z,12.98
2019-02-19T19:05:04.659Z,10.35
2019-02-19T19:07:33.140Z,14.13
2019-02-19T19:10:01.657Z,17.77
2019-02-19T19:12:30.152Z,22.60
2019-02-19T19:14:58.660Z,10.58
2019-02-19T19:17:27.143Z,10.80
2019-02-19T19:19:55.664Z,16.10
2019-02-19T19:22:24.152Z,15.23
2019-02-19T19:24:52.671Z,17.62
2019-02-19T19:27:21.168Z,24.37
2019-02-19T19:29:49.682Z,11.93
2019-02-19T19:32:18.175Z,12.15
2019-02-19T19:34:46.684Z,9.43
2019-02-19T19:37:15.179Z,14.05
2019-02-19T19:39:43.705Z,15.78
2019-02-19T19:42:12.177Z,15.23
2019-02-19T19:44:40.693Z,11.83
2019-02-19T19:47:09.179Z,18.12
2019-02-19T19:49:37.688Z,16.20
2019-02-19T19:52:06.182Z,12.70
2019-02-19T19:54:34.702Z,12.35
2019-02-19T19:57:04.488Z,11.68
2019-02-19T19:59:33.086Z,10.25
2019-02-19T20:02:01.595Z,12.78
2019-02-19T20:04:30.110Z,13.38
2019-02-19T20:06:58.604Z,16.65
2019-02-19T20:09:27.111Z,12.77
2019-02-19T20:11:55.619Z,10.75
2019-02-19T20:14:24.116Z,10.72
2019-02-19T20:19:56.628Z,14.07
2019-02-19T20:22:25.113Z,7.15
2019-02-19T20:24:53.626Z,7.85
2019-02-19T20:27:22.110Z,6.55
2019-02-19T20:29:50.616Z,12.90
2019-02-19T20:33:22.740Z,13.40
2019-02-19T20:35:51.245Z,10.32
2019-02-19T20:38:19.724Z,9.05
2019-02-19T20:40:48.232Z,8.48
2019-02-19T20:43:16.720Z,10.55
2019-02-19T20:45:45.232Z,9.10
2019-02-19T20:51:40.097Z,13.50
2019-02-19T20:54:08.580Z,9.43
2019-02-19T20:56:37.116Z,12.53
2019-02-19T20:59:05.577Z,8.63
2019-02-19T21:01:34.089Z,10.13
2019-02-19T21:04:02.582Z,16.12
2019-02-19T21:06:31.099Z,13.32
2019-02-19T21:08:59.590Z,5.80
2019-02-19T21:11:28.113Z,12.73
